Terminal Aerodrome Forecast
Issued by NWS

Home | Current Version | Previous Version | Text Only | Print | Product List | Glossary On
Versions: 1 2 3 4 5 6 7 8 9 10 11 12 13 14 15 16 17 18 19 20
000
FTUS41 KBOX 182011 AAA
TAFHYA
TAF AMD
KHYA 182011Z 1820/1918 02008KT P6SM OVC015
     FM182300 08004KT P6SM OVC020
     FM190400 00000KT P6SM BKN060
     FM191000 26006KT P6SM SCT140
     FM191700 33010G19KT P6SM FEW250=

USA.gov is the U.S. government's official web portal to all federal, state and local government web resources and services.